Time;durP1;ratioP1;P1;durP2;ratioP2;P2;SDS_P1;SDS_P2;PMS_P1;PMS_P2;Temp;Humidity;BMP_temperature;BMP_pressure;BME280_temperature;BME280_humidity;BME280_pressure;Samples;Min_cycle;Max_cycle;Signal;HPM_P1;HPM_P2
2023/10/30 00:02:05;;;;;;;0.90;0.90;;;;;;;12.05;84.77;97455.91;5006452;28;20045;-63
2023/10/30 00:04:33;;;;;;;0.90;0.90;;;;;;;11.54;84.98;97404.59;5023979;28;20053;-61
2023/10/30 00:07:00;;;;;;;0.90;0.90;;;;;;;11.32;85.55;97397.00;5024434;28;20057;-63
2023/10/30 00:09:27;;;;;;;0.90;0.90;;;;;;;11.75;85.78;97468.84;5023751;28;20050;-63
2023/10/30 00:11:54;;;;;;;0.90;0.90;;;;;;;11.77;86.13;97458.19;5024459;28;20053;-63
2023/10/30 00:14:21;;;;;;;0.80;0.80;;;;;;;11.56;87.20;97446.63;5024282;28;20049;-63
2023/10/30 00:16:48;;;;;;;0.90;0.90;;;;;;;11.47;87.57;97415.53;5024372;28;20057;-64
2023/10/30 00:19:15;;;;;;;1.00;1.00;;;;;;;11.76;88.20;97456.59;5023594;28;20045;-63
2023/10/30 00:21:41;;;;;;;1.02;1.02;;;;;;;11.86;88.10;97451.22;5024023;28;20530;-63
2023/10/30 00:24:08;;;;;;;1.00;1.00;;;;;;;11.59;88.15;97395.94;5024001;28;20053;-62
2023/10/30 00:26:35;;;;;;;1.00;1.00;;;;;;;12.00;89.05;97447.88;5023673;28;20097;-63
2023/10/30 00:29:03;;;;;;;1.00;1.00;;;;;;;11.76;89.71;97412.19;5023721;28;20057;-63
2023/10/30 00:31:30;;;;;;;1.00;1.00;;;;;;;11.96;89.11;97452.59;5022491;28;20053;-63
2023/10/30 00:33:56;;;;;;;1.00;1.00;;;;;;;12.05;90.16;97458.69;5023845;28;20076;-64
2023/10/30 00:36:23;;;;;;;1.10;1.10;;;;;;;12.26;89.76;97442.41;5023910;28;20053;-63
2023/10/30 00:38:50;;;;;;;1.00;1.00;;;;;;;11.35;89.50;97302.00;5023390;28;20049;-63
2023/10/30 00:41:16;;;;;;;0.90;0.90;;;;;;;12.19;90.07;97437.53;5023518;28;20128;-62
2023/10/30 00:43:43;;;;;;;1.00;1.00;;;;;;;12.26;89.81;97447.97;5023959;28;20586;-63
2023/10/30 00:46:10;;;;;;;1.00;1.00;;;;;;;11.90;89.09;97374.34;5023851;28;20486;-63
2023/10/30 00:48:36;;;;;;;1.00;1.00;;;;;;;12.34;89.38;97449.69;5023573;28;20049;-63
2023/10/30 00:51:03;;;;;;;1.00;1.00;;;;;;;12.40;89.06;97453.75;5023895;28;20049;-63
2023/10/30 00:53:30;;;;;;;0.98;0.98;;;;;;;12.34;88.30;97449.69;5023494;28;20057;-64
2023/10/30 00:55:57;;;;;;;0.95;0.95;;;;;;;12.34;88.45;97451.66;5026990;28;20076;-62
2023/10/30 00:58:23;;;;;;;0.90;0.90;;;;;;;12.32;88.47;97442.88;5027564;28;20056;-63
2023/10/30 01:00:50;;;;;;;1.02;1.02;;;;;;;11.71;87.16;97341.09;5026693;28;20060;-61
2023/10/30 01:03:23;;;;;;;0.93;0.93;;;;;;;12.38;87.29;97441.41;5028028;28;20292;-64
2023/10/30 01:05:57;;;;;;;0.90;0.90;;;;;;;12.34;87.41;97443.31;5026361;28;20061;-64
2023/10/30 01:08:26;;;;;;;0.90;0.90;;;;;;;12.25;87.67;97435.22;5027529;28;20045;-63
2023/10/30 01:10:55;;;;;;;1.10;1.10;;;;;;;12.29;87.33;97430.56;5026285;28;20053;-63
2023/10/30 01:13:23;;;;;;;1.00;1.00;;;;;;;12.28;87.66;97430.94;5027265;28;20053;-63
2023/10/30 01:15:54;;;;;;;1.00;1.00;;;;;;;11.87;88.05;97385.41;5027490;28;20560;-63
2023/10/30 01:18:21;;;;;;;0.90;0.90;;;;;;;12.12;87.96;97431.84;5026993;28;20500;-63
2023/10/30 01:20:48;;;;;;;1.00;1.00;;;;;;;12.07;88.59;97442.47;5027171;28;20049;-62
2023/10/30 01:23:16;;;;;;;1.00;1.00;;;;;;;12.09;88.25;97443.69;5027217;28;20046;-63
2023/10/30 01:25:44;;;;;;;1.00;1.00;;;;;;;12.07;86.96;97457.16;5026610;28;20059;-64
2023/10/30 01:28:10;;;;;;;0.90;0.90;;;;;;;11.96;86.37;97438.72;5026756;28;20045;-62
2023/10/30 01:30:37;;;;;;;0.93;0.93;;;;;;;12.05;86.11;97439.25;5027079;28;20057;-63
2023/10/30 01:33:04;;;;;;;0.90;0.90;;;;;;;11.85;86.10;97443.25;5009050;28;20107;-63
2023/10/30 01:35:31;;;;;;;0.90;0.90;;;;;;;11.72;86.77;97439.03;5027085;28;20098;-62
2023/10/30 01:37:58;;;;;;;0.90;0.90;;;;;;;10.86;87.30;97306.59;5026915;28;20119;-64
2023/10/30 01:40:25;;;;;;;0.88;0.88;;;;;;;11.60;87.46;97431.66;5026213;28;20058;-63
2023/10/30 01:42:53;;;;;;;0.80;0.80;;;;;;;11.61;87.74;97426.91;5027032;28;20056;-62
2023/10/30 01:45:20;;;;;;;0.93;0.93;;;;;;;11.58;88.44;97428.47;5026380;28;20058;-64
2023/10/30 01:47:48;;;;;;;0.90;0.90;;;;;;;11.60;88.83;97436.41;5011402;28;20092;-64
2023/10/30 01:50:16;;;;;;;0.80;0.80;;;;;;;11.62;89.45;97434.06;5006817;28;20428;-62
2023/10/30 01:52:44;;;;;;;1.00;1.00;;;;;;;11.67;89.68;97431.03;5006703;28;20052;-63
2023/10/30 01:55:12;;;;;;;0.90;0.90;;;;;;;11.67;90.00;97437.38;4989142;28;20068;-63
2023/10/30 01:57:39;;;;;;;0.90;0.90;;;;;;;11.71;89.72;97437.47;5006880;28;20049;-64
2023/10/30 02:00:07;;;;;;;0.80;0.80;;;;;;;11.62;89.62;97445.16;5005716;28;20429;-64
2023/10/30 02:02:37;;;;;;;0.90;0.90;;;;;;;11.62;89.59;97442.38;5005383;28;20352;-64
2023/10/30 02:05:05;;;;;;;0.90;0.90;;;;;;;11.57;90.01;97437.94;5006521;28;20144;-63
2023/10/30 02:07:32;;;;;;;0.90;0.90;;;;;;;11.28;89.80;97385.06;5004636;28;20050;-62
2023/10/30 02:09:59;;;;;;;0.90;0.90;;;;;;;11.53;90.20;97419.63;4988715;28;20056;-63
2023/10/30 02:12:26;;;;;;;0.90;0.90;;;;;;;11.73;90.08;97440.63;5006323;28;20045;-63
2023/10/30 02:14:53;;;;;;;0.90;0.90;;;;;;;11.77;89.71;97441.53;5005162;28;20042;-64
2023/10/30 02:17:20;;;;;;;0.90;0.90;;;;;;;11.74;89.56;97442.25;5004812;28;20054;-63
2023/10/30 02:19:46;;;;;;;0.90;0.90;;;;;;;11.81;89.44;97431.28;4991067;28;20053;-63
2023/10/30 02:22:13;;;;;;;0.90;0.90;;;;;;;11.83;89.86;97434.50;5026424;28;20050;-62
2023/10/30 02:24:40;;;;;;;1.00;1.00;;;;;;;11.77;91.01;97436.78;5025818;28;20045;-63
2023/10/30 02:27:08;;;;;;;0.90;0.90;;;;;;;11.59;92.55;97429.25;5024287;28;20057;-62
2023/10/30 02:29:35;;;;;;;0.90;0.90;;;;;;;11.52;93.64;97437.44;5025982;28;20081;-63
2023/10/30 02:32:02;;;;;;;0.90;0.90;;;;;;;11.65;93.30;97439.72;5026144;28;20055;-64
2023/10/30 02:34:29;;;;;;;0.90;0.90;;;;;;;11.12;94.23;97421.19;5024242;28;20521;-62
2023/10/30 02:36:56;;;;;;;0.95;0.95;;;;;;;11.09;94.72;97379.53;5025677;28;20516;-63
2023/10/30 02:39:23;;;;;;;0.90;0.90;;;;;;;11.47;94.34;97410.00;5025721;28;20160;-64
2023/10/30 02:41:50;;;;;;;0.90;0.90;;;;;;;11.78;93.60;97432.03;5024876;28;20060;-63
2023/10/30 02:44:17;;;;;;;0.90;0.90;;;;;;;11.74;92.78;97431.97;5025882;28;20558;-62
2023/10/30 02:46:43;;;;;;;0.90;0.90;;;;;;;11.43;91.01;97392.50;5025903;28;20134;-63
2023/10/30 02:49:10;;;;;;;0.90;0.90;;;;;;;11.73;89.75;97429.53;5025678;28;20057;-63
2023/10/30 02:51:37;;;;;;;0.80;0.80;;;;;;;11.26;88.60;97376.28;5025511;28;20053;-62
2023/10/30 02:54:03;;;;;;;0.90;0.90;;;;;;;11.54;87.92;97415.69;5025504;28;20049;-63
2023/10/30 02:56:30;;;;;;;0.90;0.90;;;;;;;11.41;87.94;97422.56;5025319;28;20063;-64
2023/10/30 02:58:59;;;;;;;0.90;0.90;;;;;;;11.27;88.95;97430.59;5024903;28;20056;-63
2023/10/30 03:01:26;;;;;;;0.90;0.90;;;;;;;11.14;89.82;97434.69;5025266;28;20053;-62
2023/10/30 03:03:53;;;;;;;0.90;0.90;;;;;;;11.23;89.73;97429.72;5025768;28;20046;-63
2023/10/30 03:06:19;;;;;;;0.80;0.80;;;;;;;11.03;90.39;97417.84;5024872;28;20508;-63
2023/10/30 03:08:46;;;;;;;0.90;0.90;;;;;;;10.80;90.08;97374.53;5024371;28;20409;-63
2023/10/30 03:11:13;;;;;;;0.90;0.90;;;;;;;11.01;90.40;97420.16;5023982;28;20068;-63
2023/10/30 03:13:40;;;;;;;0.90;0.90;;;;;;;10.87;91.08;97397.69;5008337;28;20436;-63
2023/10/30 03:16:06;;;;;;;0.85;0.85;;;;;;;11.06;90.99;97432.94;5005171;28;20409;-62
2023/10/30 03:18:34;;;;;;;1.00;1.00;;;;;;;10.94;90.79;97408.91;5004663;28;20049;-62
2023/10/30 03:21:01;;;;;;;0.80;0.80;;;;;;;11.03;91.57;97425.34;5022268;28;20057;-62
2023/10/30 03:23:27;;;;;;;0.85;0.85;;;;;;;11.00;91.47;97440.72;5024566;28;20064;-62
2023/10/30 03:25:54;;;;;;;0.90;0.90;;;;;;;11.20;91.98;97438.78;5024526;28;20068;-63
2023/10/30 03:28:21;;;;;;;0.80;0.80;;;;;;;11.31;90.96;97434.25;5023530;28;20051;-62
2023/10/30 03:30:47;;;;;;;0.80;0.80;;;;;;;11.18;90.28;97430.00;5025107;28;20053;-63
2023/10/30 03:33:14;;;;;;;0.82;0.82;;;;;;;10.92;91.13;97432.63;5013156;28;20436;-63
2023/10/30 03:35:41;;;;;;;0.80;0.80;;;;;;;11.04;91.36;97435.25;5005211;28;20076;-62
2023/10/30 03:38:08;;;;;;;0.80;0.80;;;;;;;11.09;90.39;97432.19;4986995;28;20057;-63
2023/10/30 03:40:35;;;;;;;0.88;0.88;;;;;;;10.65;90.34;97381.78;5004761;28;20300;-63
2023/10/30 03:43:02;;;;;;;0.90;0.90;;;;;;;10.86;90.96;97429.31;5004407;28;20542;-64
2023/10/30 03:45:28;;;;;;;0.80;0.80;;;;;;;10.84;91.46;97430.88;5004871;28;20046;-62
2023/10/30 03:47:55;;;;;;;0.90;0.90;;;;;;;10.81;92.06;97431.59;5005052;28;20337;-62
2023/10/30 03:50:23;;;;;;;0.90;0.90;;;;;;;10.81;92.29;97435.16;4987020;28;20053;-63
2023/10/30 03:52:50;;;;;;;0.82;0.82;;;;;;;10.56;92.55;97390.28;4987451;28;20042;-63
2023/10/30 03:55:17;;;;;;;0.90;0.90;;;;;;;10.84;93.00;97430.88;5004529;28;20050;-62
2023/10/30 03:57:45;;;;;;;0.80;0.80;;;;;;;10.92;94.11;97427.91;5004729;28;20123;-63
2023/10/30 04:00:12;;;;;;;0.90;0.90;;;;;;;10.89;94.05;97427.81;5004594;28;20552;-63
2023/10/30 04:02:39;;;;;;;0.85;0.85;;;;;;;10.70;93.92;97382.28;5004526;28;20501;-62
2023/10/30 04:05:07;;;;;;;0.80;0.80;;;;;;;11.15;92.09;97434.31;5004727;28;20100;-63
2023/10/30 04:07:33;;;;;;;0.90;0.90;;;;;;;11.18;91.45;97430.00;5004537;28;20050;-62
2023/10/30 04:10:00;;;;;;;0.90;0.90;;;;;;;11.33;90.16;97429.13;5004019;28;20551;-62
2023/10/30 04:12:27;;;;;;;0.90;0.90;;;;;;;11.24;90.15;97411.94;5003845;28;20050;-63
2023/10/30 04:14:54;;;;;;;0.80;0.80;;;;;;;11.48;90.15;97433.78;5004064;28;20053;-63
2023/10/30 04:17:21;;;;;;;0.90;0.90;;;;;;;11.43;91.32;97431.34;5004675;28;20065;-61
2023/10/30 04:19:47;;;;;;;0.85;0.85;;;;;;;11.42;91.63;97426.94;5005091;28;20049;-63
2023/10/30 04:22:14;;;;;;;0.90;0.90;;;;;;;11.37;91.47;97441.09;5024151;28;20054;-62
2023/10/30 04:24:41;;;;;;;0.90;0.90;;;;;;;10.56;90.42;97298.88;5023832;28;20045;-63
2023/10/30 04:27:08;;;;;;;0.80;0.80;;;;;;;11.11;90.63;97424.31;5023833;28;20061;-63
2023/10/30 04:29:35;;;;;;;0.90;0.90;;;;;;;11.37;90.23;97427.22;5023519;28;20432;-62
2023/10/30 04:32:02;;;;;;;0.82;0.82;;;;;;;11.06;90.23;97405.22;5006167;28;20081;-62
2023/10/30 04:34:29;;;;;;;0.82;0.82;;;;;;;11.12;91.10;97425.91;5023275;28;20046;-64
2023/10/30 04:36:56;;;;;;;0.88;0.88;;;;;;;11.19;92.32;97426.09;5024057;28;20141;-63
2023/10/30 04:39:23;;;;;;;0.90;0.90;;;;;;;11.04;92.14;97432.47;5023556;28;20515;-63
2023/10/30 04:41:50;;;;;;;0.90;0.90;;;;;;;11.03;91.22;97430.88;5024094;28;20049;-63
2023/10/30 04:44:17;;;;;;;0.80;0.80;;;;;;;10.66;90.21;97386.94;5023655;28;20527;-64
2023/10/30 04:46:43;;;;;;;0.90;0.90;;;;;;;10.96;89.80;97433.50;5023905;28;20068;-63
2023/10/30 04:49:10;;;;;;;0.80;0.80;;;;;;;10.93;89.83;97428.69;5006421;28;20136;-64
2023/10/30 04:51:37;;;;;;;0.90;0.90;;;;;;;10.60;90.28;97377.31;5024005;28;20058;-64
2023/10/30 04:54:04;;;;;;;0.80;0.80;;;;;;;10.94;91.08;97436.63;5023710;28;20145;-62
2023/10/30 04:56:30;;;;;;;0.80;0.80;;;;;;;10.96;91.87;97433.50;5006000;28;20046;-63
2023/10/30 04:58:57;;;;;;;0.85;0.85;;;;;;;10.98;92.25;97433.94;5005852;28;20059;-63
2023/10/30 05:01:24;;;;;;;0.90;0.90;;;;;;;11.11;92.56;97432.66;5005701;28;20057;-63
2023/10/30 05:03:50;;;;;;;0.90;0.90;;;;;;;11.29;91.40;97436.56;5023602;28;20049;-64
2023/10/30 05:06:17;;;;;;;0.90;0.90;;;;;;;11.26;92.21;97442.84;5023525;28;20169;-63
2023/10/30 05:08:45;;;;;;;0.90;0.90;;;;;;;11.44;91.57;97435.69;5005269;28;20975;-63
2023/10/30 05:11:12;;;;;;;0.80;0.80;;;;;;;11.46;91.12;97436.16;5023452;28;20060;-63
2023/10/30 05:13:38;;;;;;;0.80;0.80;;;;;;;11.45;91.53;97445.63;5005839;28;20041;-63
2023/10/30 05:16:05;;;;;;;0.90;0.90;;;;;;;11.47;91.21;97415.53;5023274;28;20686;-63
2023/10/30 05:18:32;;;;;;;0.88;0.88;;;;;;;11.86;90.73;97472.63;5023332;28;20092;-63
2023/10/30 05:20:59;;;;;;;0.90;0.90;;;;;;;11.47;90.48;97376.72;4995661;28;20551;-63
2023/10/30 05:23:25;;;;;;;1.00;1.00;;;;;;;12.08;89.85;97446.84;5003579;28;20057;-63
2023/10/30 05:25:52;;;;;;;0.90;0.90;;;;;;;12.22;89.98;97430.41;5002851;28;20060;-62
2023/10/30 05:28:19;;;;;;;0.93;0.93;;;;;;;12.59;88.85;97445.31;5003495;28;20659;-63
2023/10/30 05:30:48;;;;;;;0.90;0.90;;;;;;;12.77;88.25;97454.72;4985353;28;20138;-63
2023/10/30 05:33:15;;;;;;;1.00;1.00;;;;;;;13.04;86.57;97450.78;5002277;28;20481;-63
2023/10/30 05:35:42;;;;;;;1.00;1.00;;;;;;;13.28;84.46;97447.53;5002655;28;20088;-63
2023/10/30 05:38:09;;;;;;;1.08;1.08;;;;;;;13.34;84.68;97432.09;5002440;28;20064;-62
2023/10/30 05:40:35;;;;;;;1.05;1.05;;;;;;;13.60;85.15;97442.34;5002362;28;20057;-63
2023/10/30 05:43:02;;;;;;;1.20;1.20;;;;;;;13.77;85.66;97450.09;5005730;28;20433;-62
2023/10/30 05:45:29;;;;;;;1.10;1.10;;;;;;;13.98;85.43;97438.38;5006177;28;20501;-61
2023/10/30 05:47:56;;;;;;;1.10;1.10;;;;;;;14.14;85.67;97447.31;5007090;28;20446;-62
2023/10/30 05:50:22;;;;;;;1.20;1.20;;;;;;;14.29;84.56;97449.88;5006403;28;20136;-62
2023/10/30 05:52:49;;;;;;;1.30;1.30;;;;;;;14.41;83.35;97451.56;4989074;28;20054;-63
2023/10/30 05:55:16;;;;;;;1.10;1.10;;;;;;;14.21;82.82;97433.44;5006850;28;20046;-62
2023/10/30 05:57:45;;;;;;;1.27;1.27;;;;;;;14.51;83.09;97462.78;5006277;28;20141;-64
2023/10/30 06:00:13;;;;;;;1.27;1.27;;;;;;;14.01;82.31;97354.06;5004152;28;20073;-62
2023/10/30 06:02:40;;;;;;;1.20;1.20;;;;;;;14.76;80.92;97463.00;5005731;28;20046;-63
2023/10/30 06:05:08;;;;;;;1.20;1.20;;;;;;;14.78;80.42;97466.19;5004349;28;20061;-63
2023/10/30 06:07:35;;;;;;;1.40;1.40;;;;;;;14.85;79.58;97457.88;5004777;28;20053;-63
2023/10/30 06:10:04;;;;;;;1.38;1.38;;;;;;;14.89;79.37;97465.09;5005869;28;20057;-63
2023/10/30 06:12:31;;;;;;;1.30;1.30;;;;;;;15.08;78.75;97464.00;5006648;28;20045;-63
2023/10/30 06:14:58;;;;;;;1.50;1.50;;;;;;;15.15;78.42;97469.63;4988648;28;20097;-64
2023/10/30 06:17:25;;;;;;;1.30;1.30;;;;;;;15.30;78.09;97465.72;5006709;28;20046;-63
2023/10/30 06:19:51;;;;;;;1.30;1.30;;;;;;;15.18;76.95;97429.78;5006829;28;20604;-63
2023/10/30 06:22:18;;;;;;;1.30;1.30;;;;;;;15.49;77.28;97462.66;5024657;28;20064;-69
2023/10/30 06:24:45;;;;;;;1.42;1.42;;;;;;;15.62;77.26;97461.13;5025622;28;20055;-63
2023/10/30 06:27:12;;;;;;;1.50;1.50;;;;;;;15.73;77.62;97473.16;5004643;28;20137;-63
2023/10/30 06:29:39;;;;;;;1.45;1.45;;;;;;;15.58;76.44;97415.66;5004591;28;20444;-62
2023/10/30 06:32:07;;;;;;;1.55;1.55;;;;;;;16.09;75.15;97463.66;5006262;28;20567;-64
2023/10/30 06:34:34;;;;;;;1.50;1.50;;;;;;;15.60;75.24;97402.06;5005840;28;20137;-64
2023/10/30 06:37:01;;;;;;;1.48;1.48;;;;;;;16.21;75.36;97477.28;5004630;28;20057;-64
2023/10/30 06:39:28;;;;;;;1.65;1.65;;;;;;;15.87;74.69;97394.19;5006000;28;20054;-64
2023/10/30 06:41:56;;;;;;;1.50;1.50;;;;;;;16.56;74.69;97466.19;5006189;28;20149;-64
2023/10/30 06:44:23;;;;;;;1.50;1.50;;;;;;;16.78;74.50;97471.75;5005716;28;20084;-63
2023/10/30 06:46:50;;;;;;;1.63;1.63;;;;;;;16.88;72.45;97457.78;4984944;28;20054;-71
2023/10/30 06:49:17;;;;;;;1.60;1.60;;;;;;;16.98;72.31;97453.34;4984767;28;20539;-67
2023/10/30 06:51:44;;;;;;;1.75;1.75;;;;;;;16.76;72.49;97401.41;4982901;28;20046;-73
2023/10/30 06:54:12;;;;;;;1.80;1.80;;;;;;;16.35;71.79;97315.13;4974422;28;20046;-67
2023/10/30 06:56:39;;;;;;;1.70;1.70;;;;;;;16.90;70.12;97359.44;4984483;28;20058;-70
2023/10/30 06:59:06;;;;;;;1.63;1.63;;;;;;;17.68;69.73;97456.78;4984966;28;20050;-57
2023/10/30 07:01:42;;;;;;;1.80;1.80;;;;;;;17.48;69.00;97421.25;4982689;28;20058;-57
2023/10/30 07:04:13;;;;;;;1.73;1.73;;;;;;;17.69;69.42;97443.56;4981084;28;20057;-62
2023/10/30 07:06:41;;;;;;;1.90;1.90;;;;;;;17.93;67.95;97481.88;4978844;28;20054;-58
2023/10/30 07:09:09;;;;;;;1.88;1.88;;;;;;;17.38;68.44;97354.84;4981357;28;20058;-67
2023/10/30 07:11:37;;;;;;;1.77;1.77;;;;;;;18.17;68.23;97452.94;4984184;28;20047;-58
2023/10/30 07:14:04;;;;;;;2.20;2.20;;;;;;;18.23;67.73;97462.50;4982606;28;20330;-58
2023/10/30 07:16:31;;;;;;;2.00;2.00;;;;;;;18.38;67.25;97452.81;4980996;28;20081;-57
2023/10/30 07:18:59;;;;;;;1.77;1.77;;;;;;;18.43;66.78;97448.78;4982797;28;20050;-58
2023/10/30 07:21:27;;;;;;;1.92;1.92;;;;;;;16.38;66.66;97143.78;4980105;28;20054;-57
2023/10/30 07:23:54;;;;;;;1.70;1.70;;;;;;;18.30;67.37;97453.25;4982463;28;20054;-59
2023/10/30 07:26:21;;;;;;;2.30;2.30;;;;;;;18.56;67.62;97447.84;4981274;28;20062;-65
2023/10/30 07:28:49;;;;;;;2.05;2.05;;;;;;;18.82;65.67;97449.25;4983747;28;20441;-64
2023/10/30 07:31:19;;;;;;;1.80;1.80;;;;;;;18.54;65.31;97370.94;4983302;28;20054;-58
2023/10/30 07:33:46;;;;;;;1.80;1.80;;;;;;;18.32;64.36;97291.72;4975883;28;20047;-64
2023/10/30 07:36:13;;;;;;;1.85;1.85;;;;;;;19.32;63.92;97442.78;4979006;28;20050;-63
2023/10/30 07:38:41;;;;;;;1.80;1.80;;;;;;;18.73;63.38;97312.19;4979845;28;20709;-65
2023/10/30 07:41:08;;;;;;;2.20;2.20;;;;;;;19.76;62.96;97436.22;4983468;28;20593;-61
2023/10/30 07:43:34;;;;;;;1.92;1.92;;;;;;;19.97;62.28;97435.13;4984354;28;20062;-62
2023/10/30 07:46:01;;;;;;;2.50;2.40;;;;;;;20.10;61.68;97439.78;4981553;28;20140;-56
2023/10/30 07:48:28;;;;;;;1.98;1.98;;;;;;;19.96;60.93;97405.44;4982380;28;20050;-68
2023/10/30 07:50:55;;;;;;;2.20;2.20;;;;;;;20.03;60.66;97416.59;4982943;28;20505;-65
2023/10/30 07:53:22;;;;;;;2.00;2.00;;;;;;;20.16;60.36;97381.06;4984371;28;20780;-65
2023/10/30 07:55:50;;;;;;;2.25;2.25;;;;;;;20.78;59.63;97441.19;4974470;28;20414;-58
2023/10/30 07:58:17;;;;;;;2.15;2.15;;;;;;;20.92;59.01;97443.75;4985465;28;20057;-65
2023/10/30 08:00:44;;;;;;;1.90;1.90;;;;;;;20.63;58.61;97391.13;4979321;28;20810;-59
2023/10/30 08:03:23;;;;;;;2.17;2.17;;;;;;;20.35;58.95;97363.47;4990695;28;20046;-58
2023/10/30 08:05:50;;;;;;;2.28;2.28;;;;;;;18.94;57.97;97137.09;4998034;28;20520;-66
2023/10/30 08:08:17;;;;;;;2.30;2.30;;;;;;;21.12;58.29;97438.19;4984246;28;20050;-66
2023/10/30 08:10:47;;;;;;;2.22;2.22;;;;;;;21.19;57.98;97415.53;4995188;28;20525;-58
2023/10/30 08:13:14;;;;;;;2.72;2.63;;;;;;;21.57;57.73;97430.88;4984338;28;20445;-57
2023/10/30 08:15:41;;;;;;;2.33;2.30;;;;;;;21.74;57.11;97457.94;4979233;28;20061;-69
2023/10/30 08:18:08;;;;;;;2.60;2.50;;;;;;;20.35;55.96;97214.31;4982928;28;20078;-60
2023/10/30 08:20:35;;;;;;;2.40;2.33;;;;;;;20.83;55.47;97228.69;4979188;28;20568;-61
2023/10/30 08:23:01;;;;;;;2.65;2.55;;;;;;;22.04;55.95;97414.59;4994863;28;20053;-69
2023/10/30 08:25:28;;;;;;;2.50;2.40;;;;;;;21.83;55.72;97424.31;4979832;28;20069;-64
2023/10/30 08:27:59;;;;;;;2.60;2.50;;;;;;;22.03;56.03;97425.13;4995991;28;20061;-61
2023/10/30 08:30:26;;;;;;;2.50;2.40;;;;;;;21.97;56.15;97426.06;4985229;28;20134;-56
2023/10/30 08:32:54;;;;;;;2.47;2.38;;;;;;;22.08;56.33;97423.81;5001898;28;20060;-67
2023/10/30 08:35:21;;;;;;;2.50;2.40;;;;;;;22.32;55.55;97431.69;5002802;28;20163;-58
2023/10/30 08:37:49;;;;;;;2.67;2.58;;;;;;;22.13;55.22;97373.28;5002792;28;20056;-63
2023/10/30 08:40:15;;;;;;;2.85;2.75;;;;;;;22.73;55.25;97405.72;4998782;28;20050;-62
2023/10/30 08:42:42;;;;;;;3.05;2.95;;;;;;;21.83;55.61;97375.59;5005045;28;20050;-60
2023/10/30 08:45:10;;;;;;;2.50;2.40;;;;;;;21.84;57.00;97423.09;5003266;28;20057;-60
2023/10/30 08:47:38;;;;;;;2.10;2.10;;;;;;;21.88;56.89;97418.19;5003520;28;20082;-61
2023/10/30 08:50:07;;;;;;;2.55;2.45;;;;;;;22.15;55.97;97368.00;5003094;28;20441;-61
2023/10/30 08:52:34;;;;;;;2.60;2.50;;;;;;;22.73;54.84;97407.78;5003487;28;20136;-60
2023/10/30 08:55:01;;;;;;;2.30;2.30;;;;;;;22.01;57.49;97409.84;5003254;28;20054;-55
2023/10/30 08:57:28;;;;;;;2.60;2.50;;;;;;;21.44;58.85;97367.13;5003404;28;20054;-54
2023/10/30 08:59:55;;;;;;;2.22;2.22;;;;;;;22.32;57.90;97405.47;5003160;28;20136;-55
2023/10/30 09:02:21;;;;;;;2.40;2.30;;;;;;;22.35;57.04;97380.00;4985581;28;20069;-58
2023/10/30 09:04:51;;;;;;;2.60;2.50;;;;;;;22.37;56.93;97348.50;5003312;28;20191;-56
2023/10/30 09:07:19;;;;;;;2.50;2.40;;;;;;;23.12;56.82;97399.06;5003283;28;20612;-59
2023/10/30 09:09:47;;;;;;;2.85;2.75;;;;;;;23.33;55.58;97392.88;4985722;28;20122;-53
2023/10/30 09:12:14;;;;;;;2.65;2.55;;;;;;;23.60;54.34;97399.00;5003341;28;20085;-59
2023/10/30 09:14:41;;;;;;;3.00;2.90;;;;;;;23.72;54.05;97395.41;4983744;28;20504;-59
2023/10/30 09:17:08;;;;;;;3.00;2.90;;;;;;;23.85;54.62;97413.22;4996299;28;20053;-53
2023/10/30 09:19:36;;;;;;;3.00;2.90;;;;;;;24.00;54.36;97377.59;5006724;28;20058;-55
2023/10/30 09:22:04;;;;;;;3.22;3.13;;;;;;;23.80;53.88;97314.72;5012897;28;20049;-59
2023/10/30 09:24:31;;;;;;;3.10;3.00;;;;;;;24.38;53.57;97389.75;5026462;28;20050;-54
2023/10/30 09:26:58;;;;;;;3.00;2.90;;;;;;;24.12;54.44;97347.72;4995901;28;20058;-59
2023/10/30 09:29:24;;;;;;;3.15;3.05;;;;;;;24.47;54.82;97381.34;4987280;28;20050;-56
2023/10/30 09:31:51;;;;;;;3.20;3.10;;;;;;;24.40;53.93;97347.59;4987029;28;20077;-53
2023/10/30 09:34:18;;;;;;;3.40;3.30;;;;;;;24.76;53.59;97376.38;4986627;28;20462;-59
2023/10/30 09:36:45;;;;;;;3.28;3.17;;;;;;;24.59;53.89;97383.41;4987121;28;20050;-59
2023/10/30 09:39:12;;;;;;;3.22;3.13;;;;;;;24.92;53.09;97372.59;4987109;28;20076;-56
2023/10/30 09:41:45;;;;;;;3.20;3.10;;;;;;;25.06;53.05;97361.56;4986919;28;20256;-54
2023/10/30 09:44:12;;;;;;;3.40;3.30;;;;;;;24.95;52.49;97321.47;4987323;28;20066;-59
2023/10/30 09:46:40;;;;;;;3.70;3.60;;;;;;;25.16;52.38;97353.94;4986700;28;20061;-59
2023/10/30 09:49:13;;;;;;;3.42;3.33;;;;;;;24.97;53.13;97352.97;4987087;28;20157;-59
2023/10/30 09:51:43;;;;;;;3.38;3.28;;;;;;;24.77;53.39;97326.94;4986846;28;20080;-53
2023/10/30 09:54:12;;;;;;;3.47;3.38;;;;;;;24.89;53.38;97340.31;4986371;28;20061;-53
2023/10/30 09:56:39;;;;;;;3.50;3.40;;;;;;;24.71;52.64;97305.28;4986696;28;20501;-55
2023/10/30 09:59:06;;;;;;;3.55;3.45;;;;;;;24.86;53.18;97334.75;4986634;28;20054;-56
2023/10/30 10:01:32;;;;;;;3.38;3.28;;;;;;;25.02;52.32;97332.53;4986756;28;20050;-59
2023/10/30 10:03:59;;;;;;;3.47;3.38;;;;;;;25.20;52.06;97329.06;4986428;28;20521;-59
2023/10/30 10:06:26;;;;;;;3.20;3.10;;;;;;;25.03;52.00;97330.50;4986228;28;20046;-54
2023/10/30 10:08:54;;;;;;;3.28;3.17;;;;;;;24.99;51.87;97319.28;4985168;28;20054;-56
2023/10/30 10:11:24;;;;;;;3.40;3.30;;;;;;;24.68;52.54;97321.19;4986352;28;20551;-54
2023/10/30 10:13:53;;;;;;;2.88;2.78;;;;;;;24.49;52.58;97316.53;4986348;28;20056;-60
2023/10/30 10:16:31;;;;;;;3.17;3.08;;;;;;;24.27;52.25;97247.69;4986197;28;20057;-60
2023/10/30 10:18:58;;;;;;;3.30;3.20;;;;;;;24.74;51.74;97271.19;4987107;28;20475;-59
2023/10/30 10:21:26;;;;;;;3.45;3.35;;;;;;;25.18;50.85;97306.84;4987302;28;20131;-56
2023/10/30 10:23:53;;;;;;;3.50;3.40;;;;;;;25.35;50.43;97312.34;5004656;28;20056;-54
2023/10/30 10:26:29;;;;;;;3.20;3.10;;;;;;;25.27;50.83;97292.75;5010804;28;20508;-59
2023/10/30 10:28:56;;;;;;;3.25;3.15;;;;;;;25.20;51.33;97293.00;5005207;28;20056;-59
2023/10/30 10:31:22;;;;;;;3.70;3.60;;;;;;;25.62;49.81;97304.03;5005077;28;20069;-54
2023/10/30 10:33:51;;;;;;;3.20;3.10;;;;;;;25.80;49.32;97292.81;5005757;28;20057;-59
2023/10/30 10:36:18;;;;;;;3.45;3.35;;;;;;;26.00;49.04;97293.25;5005291;28;20111;-59
2023/10/30 10:38:57;;;;;;;3.72;3.63;;;;;;;26.03;48.68;97292.31;5005155;28;20093;-53
2023/10/30 10:41:27;;;;;;;3.28;3.17;;;;;;;26.17;48.55;97286.03;5005021;28;20060;-59
2023/10/30 10:43:56;;;;;;;3.58;3.47;;;;;;;26.14;48.63;97287.78;5005018;28;20050;-54
2023/10/30 10:46:23;;;;;;;3.45;3.35;;;;;;;25.91;49.00;97281.81;5005014;28;20056;-54
2023/10/30 10:48:50;;;;;;;3.22;3.13;;;;;;;25.38;49.38;97252.66;5005022;28;20488;-54
2023/10/30 10:51:37;;;;;;;3.28;3.17;;;;;;;24.48;51.36;97235.66;5005243;28;20056;-56
2023/10/30 10:54:17;;;;;;;3.20;3.10;;;;;;;25.58;50.39;97278.63;4987220;28;20056;-59
2023/10/30 10:56:49;;;;;;;3.30;3.20;;;;;;;25.95;48.69;97273.94;5004809;28;20045;-54
2023/10/30 10:59:25;;;;;;;3.72;3.63;;;;;;;26.26;47.57;97263.34;4998404;28;20046;-56
2023/10/30 11:01:55;;;;;;;3.40;3.30;;;;;;;26.32;47.65;97264.34;5000884;28;20500;-63
2023/10/30 11:04:23;;;;;;;3.90;3.80;;;;;;;26.23;48.13;97264.28;5004734;28;20058;-57
2023/10/30 11:06:58;;;;;;;3.63;3.53;;;;;;;26.10;48.02;97263.59;4984543;28;20124;-60
2023/10/30 11:09:44;;;;;;;3.67;3.58;;;;;;;26.28;47.42;97246.63;5004318;28;20053;-56
2023/10/30 11:12:18;;;;;;;3.55;3.45;;;;;;;26.49;47.16;97248.59;4996502;28;20065;-56
2023/10/30 11:14:51;;;;;;;3.40;3.30;;;;;;;26.63;46.47;97245.13;5000758;28;20050;-65
2023/10/30 11:17:18;;;;;;;3.65;3.55;;;;;;;26.61;46.70;97247.66;5011512;28;20112;-58
2023/10/30 11:19:46;;;;;;;3.70;3.60;;;;;;;26.62;47.16;97237.84;5014113;28;20052;-64
2023/10/30 11:22:40;;;;;;;4.13;4.03;;;;;;;26.55;47.30;97243.84;5024175;28;20522;-65
2023/10/30 11:25:53;;;;;;;3.45;3.35;;;;;;;26.04;46.95;97180.28;5026111;28;20045;-63
2023/10/30 11:28:22;;;;;;;3.55;3.45;;;;;;;26.42;47.37;97228.97;5023911;28;20516;-57
2023/10/30 11:30:52;;;;;;;3.53;3.42;;;;;;;26.48;46.80;97225.06;5006241;28;20045;-62
2023/10/30 11:33:19;;;;;;;3.78;3.67;;;;;;;26.52;47.07;97228.50;5023336;28;20045;-55
2023/10/30 11:36:11;;;;;;;3.65;3.55;;;;;;;25.97;47.39;97220.31;5012053;28;20079;-64
2023/10/30 11:38:56;;;;;;;3.53;3.42;;;;;;;26.13;47.89;97214.41;5006053;28;20049;-64